Flight Track Log - Related Links

Times and Time Zones

All times are in EDT time to prevent confusion due to time zone crossing. See the DAL1903 flight status page for this flight to view local times or setup timezone preferences in your user account.

Time Position Orientation Groundspeed Altitude Reporting Facility
EDT Latitude Longitude Course Direction KTS MPH feet Rate Location/Type
Thu 11:49:49 40.7500 -73.8333 114° Southeast 174 200 1,500  Level New York TRACON
Thu 11:50:49 40.7333 -73.7833 114° Southeast 236 272 3,200 1,810 Climbing New York TRACON
Thu 11:51:55 40.7833 -73.7500 27° Northeast 246 283 5,300 2,281 Climbing New York TRACON
Thu 11:52:50 40.8500 -73.8000 330° Northwest 262 302 7,800 2,713 Climbing New York TRACON
Thu 11:53:50 40.9000 -73.8667 315° West 256 295 10,500 2,100 Climbing New York TRACON
Thu 11:54:50 40.9000 -73.9500 270° West 270 311 12,000 1,481 Climbing New York TRACON
Thu 11:56:28 40.8267 -74.1194 240° Southwest 347 399 14,400 1,132 Climbing New York Center
Thu 11:57:29 40.7800 -74.2186 238° Southwest 363 418 15,000 1,289 Climbing New York Center
Thu 11:58:29 40.7200 -74.3469 238° Southwest 363 418 17,000 1,240 Climbing New York Center
Thu 11:59:30 40.6686 -74.4564 238° Southwest 378 435 17,500 1,140 Climbing New York Center
Thu 12:00:30 40.6039 -74.5897 237° Southwest 390 449 19,300 1,881 Climbing New York Center
Thu 12:01:28 40.5356 -74.7061 232° Southwest 402 463 21,200 1,714 Climbing New York Center
Thu 12:02:29 40.4628 -74.8244 231° Southwest 413 475 22,700 1,636 Climbing New York Center
Thu 12:03:29 40.3917 -74.9483 233° Southwest 426 490 24,500 1,785 Climbing New York Center
Thu 12:04:30 40.3186 -75.0692 232° Southwest 431 496 26,300 1,513 Climbing New York Center
Thu 12:05:28 40.2453 -75.1925 232° Southwest 431 496 27,500 1,513 Climbing New York Center
Thu 12:06:29 40.1742 -75.3131 232° Southwest 431 496 29,300 1,350 Climbing New York Center
Thu 12:07:28 40.0986 -75.4328 230° Southwest 431 496 30,200 950 Climbing New York Center
Thu 12:08:29 40.0236 -75.5364 227° Southwest 438 504 31,200 885 Climbing New York Center
Thu 12:09:30 39.9417 -75.6497 227° Southwest 443 510 32,000 254 Climbing New York Center
Thu 12:11:38 39.7714 -75.9156 230° Southwest 436 502 32,000  Level Washington Center
Thu 12:12:38 39.6942 -76.0339 230° Southwest 436 502 32,000  Level Washington Center
Thu 12:13:38 39.6206 -76.1544 232° Southwest 436 502 32,000  Level Washington Center
Thu 12:14:38 39.5428 -76.2750 230° Southwest 436 502 32,000  Level Washington Center
Thu 12:15:38 39.4631 -76.3953 229° Southwest 436 502 32,000  Level Washington Center
Thu 12:16:38 39.3872 -76.5153 231° Southwest 436 502 32,000  Level Washington Center
Thu 12:17:38 39.3089 -76.6378 230° Southwest 441 507 32,000  Level Washington Center
Thu 12:18:38 39.2350 -76.7572 231° Southwest 441 507 32,000  Level Washington Center
Thu 12:19:38 39.1567 -76.8764 230° Southwest 441 507 32,000  Level Washington Center
Thu 12:20:38 39.0761 -76.9981 230° Southwest 441 507 32,000  Level Washington Center
Thu 12:21:38 38.9894 -77.1031 223° Southwest 446 513 32,000  Level Washington Center
Thu 12:22:38 38.8983 -77.2053 221° Southwest 441 507 32,000  Level Washington Center
Thu 12:23:38 38.7947 -77.3203 221° Southwest 446 513 32,000  Level Washington Center
Thu 12:24:38 38.7036 -77.4167 220° Southwest 439 505 32,000  Level Washington Center
Thu 12:25:38 38.6103 -77.5153 220° Southwest 439 505 32,000  Level Washington Center
Thu 12:26:38 38.5189 -77.6164 221° Southwest 429 494 32,000  Level Washington Center
Thu 12:27:38 38.4383 -77.7069 221° Southwest 434 499 32,000  Level Washington Center
Thu 12:28:38 38.3361 -77.8153 220° Southwest 439 505 32,000  Level Washington Center
Thu 12:29:38 38.2511 -77.9078 221° Southwest 439 505 32,000  Level Washington Center
Thu 12:30:38 38.1489 -78.0156 220° Southwest 439 505 32,000  Level Washington Center
Thu 12:31:38 38.0658 -78.1000 219° Southwest 439 505 32,000  Level Washington Center
Thu 12:32:38 37.9717 -78.2022 221° Southwest 439 505 32,000  Level Washington Center
Thu 12:33:38 37.8758 -78.2936 217° Southwest 439 505 32,000  Level Washington Center
Thu 12:34:38 37.7672 -78.3922 216° Southwest 439 505 32,000  Level Washington Center
Thu 12:35:38 37.6714 -78.4831 217° Southwest 444 511 32,000  Level Washington Center
Thu 12:36:38 37.5731 -78.5736 216° Southwest 444 511 32,000  Level Washington Center
Thu 12:37:38 37.4769 -78.6642 217° Southwest 444 511 32,000  Level Washington Center
Thu 12:38:38 37.3914 -78.7469 218° Southwest 444 511 32,000  Level Washington Center
Thu 12:39:38 37.2931 -78.8342 215° Southwest 444 511 32,000  Level Washington Center
Thu 12:40:38 37.1944 -78.9267 217° Southwest 444 511 32,000  Level Washington Center
Thu 12:41:38 37.0961 -79.0161 216° Southwest 444 511 32,000  Level Washington Center
Thu 12:42:38 37.0017 -79.1056 217° Southwest 444 511 32,000  Level Washington Center
Thu 12:43:38 36.8944 -79.2044 216° Southwest 439 505 32,000  Level Washington Center
Thu 12:44:38 36.7956 -79.2958 217° Southwest 444 511 32,000  Level Washington Center
Thu 12:45:38 36.6969 -79.3869 217° Southwest 444 511 32,000  Level Washington Center
Thu 12:46:38 36.5981 -79.4753 216° Southwest 444 511 32,000  Level Washington Center
Thu 12:48:39 36.4036 -79.6589 217° Southwest 441 507 32,000  Level Atlanta Center
Thu 12:49:39 36.3122 -79.7333 213° Southwest 441 507 32,000  Level Atlanta Center
Thu 12:50:39 36.2131 -79.8208 215° Southwest 441 507 32,000  Level Atlanta Center
Thu 12:51:39 36.1039 -79.9167 215° Southwest 441 507 32,000  Level Atlanta Center
Thu 12:52:39 35.9981 -79.9964 211° Southwest 441 507 32,000  Level Atlanta Center
Thu 12:53:39 35.8872 -80.0531 203° Southwest 436 502 32,000  Level Atlanta Center
Thu 12:54:39 35.7867 -80.1017 201° Southwest 436 502 32,000  Level Atlanta Center
Thu 12:55:39 35.6656 -80.1689 204° Southwest 441 507 32,000  Level Atlanta Center
Thu 12:56:39 35.5506 -80.2228 201° Southwest 441 507 32,000  Level Atlanta Center
Thu 12:57:39 35.4478 -80.2758 203° Southwest 441 507 32,000  Level Atlanta Center
Thu 12:58:39 35.3389 -80.3292 202° Southwest 441 507 32,000  Level Atlanta Center
Thu 12:59:39 35.2258 -80.3853 202° Southwest 446 513 32,000  Level Atlanta Center
Thu 13:00:39 35.1125 -80.4383 201° Southwest 446 513 32,000  Level Atlanta Center
Thu 13:02:16 34.9222 -80.5356 203° Southwest 439 505 32,000  Level Jacksonville Center
Thu 13:03:16 34.8125 -80.5892 202° Southwest 434 499 32,000  Level Jacksonville Center
Thu 13:04:16 34.7050 -80.6425 202° Southwest 424 488 32,000  Level Jacksonville Center
Thu 13:05:16 34.5997 -80.6931 202° Southwest 442 509 32,000  Level Jacksonville Center
Thu 13:06:16 34.4858 -80.7489 202° Southwest 449 517 32,000  Level Jacksonville Center
Thu 13:07:16 34.3783 -80.8019 202° Southwest 443 510 32,000  Level Jacksonville Center
Thu 13:08:16 34.2583 -80.8625 203° Southwest 436 502 32,000  Level Jacksonville Center
Thu 13:09:16 34.1444 -80.9178 202° Southwest 429 494 32,000  Level Jacksonville Center
Thu 13:10:16 34.0325 -80.9706 201° Southwest 434 499 32,000  Level Jacksonville Center
Thu 13:11:16 33.9206 -81.0231 201° Southwest 434 499 32,000  Level Jacksonville Center
Thu 13:12:16 33.8067 -81.0756 201° Southwest 434 499 32,000  Level Jacksonville Center
Thu 13:13:16 33.6947 -81.1353 204° Southwest 434 499 32,000  Level Jacksonville Center
Thu 13:14:16 33.5808 -81.1922 203° Southwest 434 499 32,000  Level Jacksonville Center
Thu 13:15:16 33.4708 -81.2467 202° Southwest 434 499 32,000  Level Jacksonville Center
Thu 13:16:16 33.3589 -81.3033 203° Southwest 434 499 32,000  Level Jacksonville Center
Thu 13:17:16 33.2469 -81.3553 201° Southwest 434 499 32,000  Level Jacksonville Center
Thu 13:18:16 33.1328 -81.4142 203° Southwest 442 509 32,000  Level Jacksonville Center
Thu 13:19:16 33.0228 -81.4656 201° Southwest 435 501 32,000  Level Jacksonville Center
Thu 13:20:16 32.9106 -81.5217 203° Southwest 435 501 32,000  Level Jacksonville Center
Thu 13:21:16 32.7964 -81.5778 202° Southwest 435 501 32,000  Level Jacksonville Center
Thu 13:22:16 32.6864 -81.6314 202° Southwest 435 501 32,000  Level Jacksonville Center
Thu 13:23:16 32.5761 -81.6847 202° Southwest 431 496 32,000  Level Jacksonville Center
Thu 13:24:16 32.4764 -81.7303 201° Southwest 436 502 32,000  Level Jacksonville Center
Thu 13:25:16 32.3539 -81.7933 204° Southwest 436 502 32,000  Level Jacksonville Center
Thu 13:26:16 32.2669 -81.8878 223° Southwest 419 482 32,000  Level Jacksonville Center
Thu 13:27:16 32.2008 -81.9842 231° Southwest 419 482 32,000  Level Jacksonville Center
Thu 13:28:16 32.1244 -82.1003 232° Southwest 419 482 32,000  Level Jacksonville Center
Thu 13:29:16 32.0603 -82.1939 231° Southwest 419 482 32,000  Level Jacksonville Center
Thu 13:30:16 31.9836 -82.3122 233° Southwest 414 476 32,000  Level Jacksonville Center
Thu 13:31:16 31.9214 -82.4031 231° Southwest 414 476 32,000  Level Jacksonville Center
Thu 13:32:16 31.8486 -82.5086 231° Southwest 414 476 32,000  Level Jacksonville Center
Thu 13:33:16 31.7800 -82.6114 232° Southwest 414 476 32,000  Level Jacksonville Center
Thu 13:34:16 31.7050 -82.7142 229° Southwest 414 476 32,000  Level Jacksonville Center
Thu 13:35:16 31.6342 -82.8169 231° Southwest 414 476 32,000  Level Jacksonville Center
Thu 13:36:16 31.5297 -82.8706 204° Southwest 409 471 32,000  Level Jacksonville Center
Thu 13:37:16 31.4150 -82.9119 197° South 409 471 32,000  Level Jacksonville Center
Thu 13:38:16 31.3000 -82.9486 195° South 426 490 32,000  Level Jacksonville Center
Thu 13:39:16 31.1914 -82.9847 196° South 420 483 32,000  Level Jacksonville Center
Thu 13:40:16 31.0767 -83.0261 197° South 420 483 32,000 -500 Level Jacksonville Center
Thu 13:41:16 30.9700 -83.0572 194° South 409 471 31,000 -550 Descending Jacksonville Center
Thu 13:42:16 30.8553 -83.0983 197° South 415 478 30,900 -333 Descending Jacksonville Center
Thu 13:44:16 30.6169 -83.1797 196° South 421 484 30,000 -300 Descending Jacksonville Center
Thu 13:45:16 30.5042 -83.2156 195° South 421 484 30,000  Level Jacksonville Center
Thu 13:46:16 30.3872 -83.2539 196° South 421 484 30,000  Level Jacksonville Center
Thu 13:47:16 30.2764 -83.2919 197° South 421 484 30,000 -50 Level Jacksonville Center
Thu 13:48:16 30.1614 -83.3297 196° South 421 484 29,900 -500 Descending Jacksonville Center
Thu 13:49:16 30.0444 -83.3678 196° South 421 484 29,000 -450 Descending Jacksonville Center
Thu 13:50:16 29.9294 -83.4056 196° South 426 490 29,000 -200 Level Jacksonville Center
Thu 13:51:16 29.8122 -83.4408 195° South 432 497 28,600 -1,000 Descending Jacksonville Center
Thu 13:52:16 29.6953 -83.4783 196° South 432 497 27,000 -1,450 Descending Jacksonville Center
Thu 13:53:16 29.5803 -83.5158 196° South 438 504 25,700 -1,000 Descending Jacksonville Center
Thu 13:54:16 29.4672 -83.5508 195° South 433 498 25,000 -400 Descending Jacksonville Center
Thu 13:55:16 29.3522 -83.5836 194° South 433 498 24,900 -50 Descending Jacksonville Center
Thu 13:56:16 29.2378 -83.5328 159° South 418 481 24,900 50 Level Jacksonville Center
Thu 13:57:16 29.1275 -83.4725 154° Southeast 427 491 25,000 50 Climbing Jacksonville Center
Thu 13:58:16 29.0150 -83.4103 154° Southeast 432 497 25,000  Level Jacksonville Center
Thu 13:59:16 28.9150 -83.3575 155° Southeast 439 505 25,000 -350 Level Jacksonville Center
Thu 14:00:16 28.8025 -83.3072 159° South 439 505 24,300 -1,100 Descending Jacksonville Center
Thu 14:01:16 28.6983 -83.2664 161° South 420 483 22,800 -1,758 Descending Jacksonville Center
Thu 14:03:34 28.4500 -83.1667 161° South 375 432 18,500 -2,029 Descending Tampa TRACON
Thu 14:04:40 28.3500 -83.1333 164° South 360 414 15,900 -2,350 Descending Tampa TRACON
Thu 14:05:34 28.2667 -83.1000 161° South 356 410 13,800 -2,053 Descending Tampa TRACON
Thu 14:06:34 28.1667 -83.0500 156° South 350 403 12,000 -900 Descending Tampa TRACON
Thu 14:07:34 28.0833 -83.0167 161° South 331 381 12,000 -150 Level Tampa TRACON
Thu 14:08:34 28.0000 -83.0167 180° South 312 359 11,700 -750 Descending Tampa TRACON
Thu 14:09:34 27.9167 -83.0167 180° South 272 313 10,500 -1,350 Descending Tampa TRACON
Thu 14:10:34 27.8500 -83.0167 180° South 270 311 9,000 -1,550 Descending Tampa TRACON
Thu 14:11:34 27.7667 -83.0000 170° South 266 306 7,400 -1,526 Descending Tampa TRACON
Thu 14:12:28 27.7333 -82.9333 119° Southeast 260 299 6,100 -1,143 Descending Tampa TRACON
Thu 14:13:40 27.6667 -82.8667 138° Southeast 258 297 5,000 -500 Descending Tampa TRACON
Thu 14:14:40 27.6167 -82.8167 138° Southeast 255 293 5,000 -397 Level Tampa TRACON
Thu 14:15:41 27.5667 -82.7500 130° Southeast 252 290 4,200 -842 Descending Tampa TRACON
Thu 14:16:34 27.5333 -82.7167 138° Southeast 208 239 3,400 -842 Descending Tampa TRACON
Thu 14:17:35 27.5000 -82.6667 127° Southeast 170 196 2,600 -810 Descending Tampa TRACON
Thu 14:18:40 27.4667 -82.6333 138° Southeast 164 189 1,700 -750 Descending Tampa TRACON
Thu 14:19:35 27.4333 -82.6000 138° Southeast 128 147 1,100 -678 Descending Tampa TRACON
Thu 14:20:35 27.4167 -82.5833 138° Southeast 123 142 400 -700 Descending Tampa TRACON

Login

Don't have an account? Register now (free) for customized features, flight alerts, and more!